sensor_id;sensor_type;location;lat;lon;timestamp;P1;durP1;ratioP1;P2;durP2;ratioP2
68353;SDS011;55274;43.060;25.618;2022-07-29T00:02:21;7.78;;;5.38;;
68353;SDS011;55274;43.060;25.618;2022-07-29T00:05:05;9.75;;;5.50;;
68353;SDS011;55274;43.060;25.618;2022-07-29T00:07:33;10.35;;;5.80;;
68353;SDS011;55274;43.060;25.618;2022-07-29T00:09:59;11.20;;;7.22;;
68353;SDS011;55274;43.060;25.618;2022-07-29T00:12:24;11.80;;;7.72;;
68353;SDS011;55274;43.060;25.618;2022-07-29T00:14:50;12.90;;;6.32;;
68353;SDS011;55274;43.060;25.618;2022-07-29T00:17:20;11.10;;;5.88;;
68353;SDS011;55274;43.060;25.618;2022-07-29T00:19:47;11.23;;;6.35;;
68353;SDS011;55274;43.060;25.618;2022-07-29T00:22:13;11.57;;;6.30;;
68353;SDS011;55274;43.060;25.618;2022-07-29T00:24:39;12.65;;;6.15;;
68353;SDS011;55274;43.060;25.618;2022-07-29T00:27:04;10.23;;;6.15;;
68353;SDS011;55274;43.060;25.618;2022-07-29T00:29:39;8.05;;;5.85;;
68353;SDS011;55274;43.060;25.618;2022-07-29T00:32:05;8.73;;;5.70;;
68353;SDS011;55274;43.060;25.618;2022-07-29T00:34:49;10.20;;;5.40;;
68353;SDS011;55274;43.060;25.618;2022-07-29T00:37:52;10.23;;;5.20;;
68353;SDS011;55274;43.060;25.618;2022-07-29T00:40:24;9.70;;;5.38;;
68353;SDS011;55274;43.060;25.618;2022-07-29T00:42:50;10.95;;;5.63;;
68353;SDS011;55274;43.060;25.618;2022-07-29T00:45:35;7.90;;;4.95;;
68353;SDS011;55274;43.060;25.618;2022-07-29T00:48:20;9.35;;;5.78;;
68353;SDS011;55274;43.060;25.618;2022-07-29T00:51:05;8.85;;;5.35;;
68353;SDS011;55274;43.060;25.618;2022-07-29T00:53:32;8.30;;;6.03;;
68353;SDS011;55274;43.060;25.618;2022-07-29T00:56:03;10.07;;;5.70;;
68353;SDS011;55274;43.060;25.618;2022-07-29T00:58:29;9.40;;;5.50;;
68353;SDS011;55274;43.060;25.618;2022-07-29T01:00:56;10.35;;;5.80;;
68353;SDS011;55274;43.060;25.618;2022-07-29T01:03:23;11.80;;;5.75;;
68353;SDS011;55274;43.060;25.618;2022-07-29T01:05:49;11.85;;;5.40;;
68353;SDS011;55274;43.060;25.618;2022-07-29T01:08:15;10.07;;;5.55;;
68353;SDS011;55274;43.060;25.618;2022-07-29T01:10:41;9.38;;;5.07;;
68353;SDS011;55274;43.060;25.618;2022-07-29T01:13:09;10.50;;;5.80;;
68353;SDS011;55274;43.060;25.618;2022-07-29T01:15:38;8.20;;;5.53;;
68353;SDS011;55274;43.060;25.618;2022-07-29T01:26:57;9.30;;;5.20;;
68353;SDS011;55274;43.060;25.618;2022-07-29T01:29:36;7.68;;;5.53;;
68353;SDS011;55274;43.060;25.618;2022-07-29T01:32:10;11.25;;;6.13;;
68353;SDS011;55274;43.060;25.618;2022-07-29T01:34:55;9.57;;;5.72;;
68353;SDS011;55274;43.060;25.618;2022-07-29T01:37:28;8.00;;;5.60;;
68353;SDS011;55274;43.060;25.618;2022-07-29T01:39:55;8.75;;;5.47;;
68353;SDS011;55274;43.060;25.618;2022-07-29T01:42:42;11.23;;;6.03;;
68353;SDS011;55274;43.060;25.618;2022-07-29T01:45:14;10.60;;;6.28;;
68353;SDS011;55274;43.060;25.618;2022-07-29T01:47:44;13.43;;;7.00;;
68353;SDS011;55274;43.060;25.618;2022-07-29T01:50:12;10.10;;;6.20;;
68353;SDS011;55274;43.060;25.618;2022-07-29T01:52:46;12.25;;;6.50;;
68353;SDS011;55274;43.060;25.618;2022-07-29T01:55:20;9.75;;;6.38;;
68353;SDS011;55274;43.060;25.618;2022-07-29T02:00:16;8.07;;;5.32;;
68353;SDS011;55274;43.060;25.618;2022-07-29T02:02:43;10.98;;;5.25;;
68353;SDS011;55274;43.060;25.618;2022-07-29T02:05:11;8.73;;;5.35;;
68353;SDS011;55274;43.060;25.618;2022-07-29T02:07:40;10.25;;;5.43;;
68353;SDS011;55274;43.060;25.618;2022-07-29T02:10:09;9.55;;;5.40;;
68353;SDS011;55274;43.060;25.618;2022-07-29T02:12:36;13.18;;;5.28;;
68353;SDS011;55274;43.060;25.618;2022-07-29T02:15:04;10.85;;;4.93;;
68353;SDS011;55274;43.060;25.618;2022-07-29T02:17:38;7.50;;;5.03;;
68353;SDS011;55274;43.060;25.618;2022-07-29T02:20:14;11.65;;;6.90;;
68353;SDS011;55274;43.060;25.618;2022-07-29T02:22:41;11.05;;;6.00;;
68353;SDS011;55274;43.060;25.618;2022-07-29T02:25:10;10.48;;;6.45;;
68353;SDS011;55274;43.060;25.618;2022-07-29T02:27:37;10.02;;;5.90;;
68353;SDS011;55274;43.060;25.618;2022-07-29T02:30:04;11.07;;;7.20;;
68353;SDS011;55274;43.060;25.618;2022-07-29T02:32:34;11.85;;;7.53;;
68353;SDS011;55274;43.060;25.618;2022-07-29T02:35:02;12.07;;;7.78;;
68353;SDS011;55274;43.060;25.618;2022-07-29T02:37:28;18.38;;;6.55;;
68353;SDS011;55274;43.060;25.618;2022-07-29T02:39:55;11.45;;;6.63;;
68353;SDS011;55274;43.060;25.618;2022-07-29T02:42:23;11.50;;;7.13;;
68353;SDS011;55274;43.060;25.618;2022-07-29T02:44:51;14.15;;;7.43;;
68353;SDS011;55274;43.060;25.618;2022-07-29T02:47:21;16.35;;;7.43;;
68353;SDS011;55274;43.060;25.618;2022-07-29T02:50:06;13.70;;;7.75;;
68353;SDS011;55274;43.060;25.618;2022-07-29T02:52:44;13.95;;;8.15;;
68353;SDS011;55274;43.060;25.618;2022-07-29T02:55:14;17.48;;;8.45;;
68353;SDS011;55274;43.060;25.618;2022-07-29T03:00:41;15.32;;;7.60;;
68353;SDS011;55274;43.060;25.618;2022-07-29T03:03:08;11.65;;;7.15;;
68353;SDS011;55274;43.060;25.618;2022-07-29T03:05:37;22.73;;;7.15;;
68353;SDS011;55274;43.060;25.618;2022-07-29T03:08:05;13.38;;;6.80;;
68353;SDS011;55274;43.060;25.618;2022-07-29T03:10:34;16.38;;;7.03;;
68353;SDS011;55274;43.060;25.618;2022-07-29T03:13:02;49.08;;;8.85;;
68353;SDS011;55274;43.060;25.618;2022-07-29T03:15:29;29.98;;;7.90;;
68353;SDS011;55274;43.060;25.618;2022-07-29T03:17:55;13.13;;;6.30;;
68353;SDS011;55274;43.060;25.618;2022-07-29T03:20:23;14.77;;;5.88;;
68353;SDS011;55274;43.060;25.618;2022-07-29T03:22:49;8.93;;;5.32;;
68353;SDS011;55274;43.060;25.618;2022-07-29T03:25:16;13.63;;;6.68;;
68353;SDS011;55274;43.060;25.618;2022-07-29T03:27:44;9.23;;;5.63;;
68353;SDS011;55274;43.060;25.618;2022-07-29T03:30:10;10.27;;;5.43;;
68353;SDS011;55274;43.060;25.618;2022-07-29T03:32:38;9.80;;;5.55;;
68353;SDS011;55274;43.060;25.618;2022-07-29T03:35:05;44.83;;;6.93;;
68353;SDS011;55274;43.060;25.618;2022-07-29T03:37:31;15.85;;;6.40;;
68353;SDS011;55274;43.060;25.618;2022-07-29T03:39:58;16.42;;;6.22;;
68353;SDS011;55274;43.060;25.618;2022-07-29T03:42:28;15.20;;;6.65;;
68353;SDS011;55274;43.060;25.618;2022-07-29T03:44:58;12.82;;;5.88;;
68353;SDS011;55274;43.060;25.618;2022-07-29T03:47:27;14.35;;;5.03;;
68353;SDS011;55274;43.060;25.618;2022-07-29T03:49:56;12.35;;;5.38;;
68353;SDS011;55274;43.060;25.618;2022-07-29T03:52:26;14.45;;;5.78;;
68353;SDS011;55274;43.060;25.618;2022-07-29T03:54:52;18.55;;;5.75;;
68353;SDS011;55274;43.060;25.618;2022-07-29T03:57:19;14.68;;;5.88;;
68353;SDS011;55274;43.060;25.618;2022-07-29T03:59:48;16.73;;;5.70;;
68353;SDS011;55274;43.060;25.618;2022-07-29T04:02:16;15.68;;;6.55;;
68353;SDS011;55274;43.060;25.618;2022-07-29T04:04:42;19.05;;;7.35;;
68353;SDS011;55274;43.060;25.618;2022-07-29T04:07:10;15.05;;;6.15;;
68353;SDS011;55274;43.060;25.618;2022-07-29T04:09:40;26.38;;;7.28;;
68353;SDS011;55274;43.060;25.618;2022-07-29T04:12:06;17.95;;;5.88;;
68353;SDS011;55274;43.060;25.618;2022-07-29T04:14:33;10.40;;;5.97;;
68353;SDS011;55274;43.060;25.618;2022-07-29T04:17:00;24.73;;;8.07;;
68353;SDS011;55274;43.060;25.618;2022-07-29T04:19:27;11.48;;;5.88;;
68353;SDS011;55274;43.060;25.618;2022-07-29T04:21:53;13.27;;;5.70;;
68353;SDS011;55274;43.060;25.618;2022-07-29T04:24:19;10.02;;;5.45;;
68353;SDS011;55274;43.060;25.618;2022-07-29T04:26:45;12.25;;;6.95;;
68353;SDS011;55274;43.060;25.618;2022-07-29T04:29:11;16.00;;;7.20;;
68353;SDS011;55274;43.060;25.618;2022-07-29T04:31:39;12.52;;;6.72;;
68353;SDS011;55274;43.060;25.618;2022-07-29T04:34:05;6.90;;;4.47;;
68353;SDS011;55274;43.060;25.618;2022-07-29T04:36:31;7.93;;;5.10;;
68353;SDS011;55274;43.060;25.618;2022-07-29T04:38:57;12.88;;;5.53;;
68353;SDS011;55274;43.060;25.618;2022-07-29T04:41:23;10.98;;;6.60;;
68353;SDS011;55274;43.060;25.618;2022-07-29T04:43:49;13.32;;;6.25;;
68353;SDS011;55274;43.060;25.618;2022-07-29T04:46:15;15.63;;;5.82;;
68353;SDS011;55274;43.060;25.618;2022-07-29T04:48:41;11.60;;;5.97;;
68353;SDS011;55274;43.060;25.618;2022-07-29T04:51:06;17.80;;;6.95;;
68353;SDS011;55274;43.060;25.618;2022-07-29T04:53:32;14.98;;;8.25;;
68353;SDS011;55274;43.060;25.618;2022-07-29T04:55:58;14.95;;;7.10;;
68353;SDS011;55274;43.060;25.618;2022-07-29T04:58:24;24.65;;;8.55;;
68353;SDS011;55274;43.060;25.618;2022-07-29T05:00:50;13.18;;;7.30;;
68353;SDS011;55274;43.060;25.618;2022-07-29T05:03:16;16.70;;;8.90;;
68353;SDS011;55274;43.060;25.618;2022-07-29T05:05:42;18.25;;;8.93;;
68353;SDS011;55274;43.060;25.618;2022-07-29T05:08:09;18.80;;;8.38;;
68353;SDS011;55274;43.060;25.618;2022-07-29T05:10:35;23.38;;;10.25;;
68353;SDS011;55274;43.060;25.618;2022-07-29T05:13:05;19.52;;;10.95;;
68353;SDS011;55274;43.060;25.618;2022-07-29T05:15:32;16.65;;;10.35;;
68353;SDS011;55274;43.060;25.618;2022-07-29T05:18:00;9.23;;;6.93;;
68353;SDS011;55274;43.060;25.618;2022-07-29T05:20:26;20.63;;;12.40;;
68353;SDS011;55274;43.060;25.618;2022-07-29T05:22:57;18.05;;;13.05;;
68353;SDS011;55274;43.060;25.618;2022-07-29T05:25:25;23.90;;;11.90;;
68353;SDS011;55274;43.060;25.618;2022-07-29T05:27:52;25.63;;;16.40;;
68353;SDS011;55274;43.060;25.618;2022-07-29T05:30:18;28.48;;;15.73;;
68353;SDS011;55274;43.060;25.618;2022-07-29T05:32:44;21.27;;;15.80;;
68353;SDS011;55274;43.060;25.618;2022-07-29T05:35:11;26.80;;;14.70;;
68353;SDS011;55274;43.060;25.618;2022-07-29T05:37:38;22.75;;;14.55;;
68353;SDS011;55274;43.060;25.618;2022-07-29T05:40:04;27.38;;;13.30;;
68353;SDS011;55274;43.060;25.618;2022-07-29T05:42:30;25.90;;;14.48;;
68353;SDS011;55274;43.060;25.618;2022-07-29T05:44:56;23.30;;;12.93;;
68353;SDS011;55274;43.060;25.618;2022-07-29T05:47:22;26.95;;;12.52;;
68353;SDS011;55274;43.060;25.618;2022-07-29T05:49:48;22.25;;;11.10;;
68353;SDS011;55274;43.060;25.618;2022-07-29T05:52:15;14.27;;;9.02;;
68353;SDS011;55274;43.060;25.618;2022-07-29T05:54:41;12.02;;;6.97;;
68353;SDS011;55274;43.060;25.618;2022-07-29T05:57:07;14.73;;;6.32;;
68353;SDS011;55274;43.060;25.618;2022-07-29T05:59:36;13.60;;;7.40;;
68353;SDS011;55274;43.060;25.618;2022-07-29T06:02:02;17.60;;;9.52;;
68353;SDS011;55274;43.060;25.618;2022-07-29T06:04:30;18.20;;;8.30;;
68353;SDS011;55274;43.060;25.618;2022-07-29T06:06:56;16.02;;;8.90;;
68353;SDS011;55274;43.060;25.618;2022-07-29T06:09:22;16.45;;;9.23;;
68353;SDS011;55274;43.060;25.618;2022-07-29T06:11:48;11.63;;;7.90;;
68353;SDS011;55274;43.060;25.618;2022-07-29T06:14:14;19.33;;;9.50;;
68353;SDS011;55274;43.060;25.618;2022-07-29T06:16:40;19.88;;;12.13;;
68353;SDS011;55274;43.060;25.618;2022-07-29T06:19:06;30.60;;;18.70;;
68353;SDS011;55274;43.060;25.618;2022-07-29T06:21:32;23.23;;;15.85;;
68353;SDS011;55274;43.060;25.618;2022-07-29T06:23:58;22.60;;;8.90;;
68353;SDS011;55274;43.060;25.618;2022-07-29T06:26:24;14.23;;;8.07;;
68353;SDS011;55274;43.060;25.618;2022-07-29T06:28:50;15.45;;;8.20;;
68353;SDS011;55274;43.060;25.618;2022-07-29T06:31:16;19.08;;;12.15;;
68353;SDS011;55274;43.060;25.618;2022-07-29T06:33:41;32.63;;;16.30;;
68353;SDS011;55274;43.060;25.618;2022-07-29T06:36:07;24.13;;;15.60;;
68353;SDS011;55274;43.060;25.618;2022-07-29T06:38:33;29.30;;;16.67;;
68353;SDS011;55274;43.060;25.618;2022-07-29T06:40:59;30.80;;;17.00;;
68353;SDS011;55274;43.060;25.618;2022-07-29T06:43:31;23.27;;;14.93;;
68353;SDS011;55274;43.060;25.618;2022-07-29T06:45:59;18.52;;;11.77;;
68353;SDS011;55274;43.060;25.618;2022-07-29T06:48:26;25.98;;;11.25;;
68353;SDS011;55274;43.060;25.618;2022-07-29T06:50:53;17.38;;;6.63;;
68353;SDS011;55274;43.060;25.618;2022-07-29T06:53:19;10.23;;;6.97;;
68353;SDS011;55274;43.060;25.618;2022-07-29T06:55:45;15.00;;;7.80;;
68353;SDS011;55274;43.060;25.618;2022-07-29T06:58:11;22.63;;;8.18;;
68353;SDS011;55274;43.060;25.618;2022-07-29T07:00:37;16.50;;;7.07;;
68353;SDS011;55274;43.060;25.618;2022-07-29T07:03:03;14.25;;;6.68;;
68353;SDS011;55274;43.060;25.618;2022-07-29T07:05:28;15.27;;;6.78;;
68353;SDS011;55274;43.060;25.618;2022-07-29T07:07:54;20.00;;;6.75;;
68353;SDS011;55274;43.060;25.618;2022-07-29T07:10:20;29.30;;;6.97;;
68353;SDS011;55274;43.060;25.618;2022-07-29T07:12:46;12.68;;;4.97;;
68353;SDS011;55274;43.060;25.618;2022-07-29T07:15:12;10.50;;;4.50;;
68353;SDS011;55274;43.060;25.618;2022-07-29T07:17:37;9.68;;;4.05;;
68353;SDS011;55274;43.060;25.618;2022-07-29T07:20:04;8.38;;;4.47;;
68353;SDS011;55274;43.060;25.618;2022-07-29T07:22:31;8.93;;;4.65;;
68353;SDS011;55274;43.060;25.618;2022-07-29T07:24:57;12.43;;;4.75;;
68353;SDS011;55274;43.060;25.618;2022-07-29T07:27:22;5.78;;;2.97;;
68353;SDS011;55274;43.060;25.618;2022-07-29T07:29:48;5.97;;;3.20;;
68353;SDS011;55274;43.060;25.618;2022-07-29T07:32:14;8.50;;;3.72;;
68353;SDS011;55274;43.060;25.618;2022-07-29T07:34:42;5.07;;;2.85;;
68353;SDS011;55274;43.060;25.618;2022-07-29T07:37:08;4.95;;;2.60;;
68353;SDS011;55274;43.060;25.618;2022-07-29T07:39:34;4.05;;;2.42;;
68353;SDS011;55274;43.060;25.618;2022-07-29T07:42:00;8.30;;;2.58;;
68353;SDS011;55274;43.060;25.618;2022-07-29T07:44:26;4.97;;;2.28;;
68353;SDS011;55274;43.060;25.618;2022-07-29T07:46:52;3.22;;;1.92;;
68353;SDS011;55274;43.060;25.618;2022-07-29T07:49:18;3.83;;;2.00;;
68353;SDS011;55274;43.060;25.618;2022-07-29T07:51:43;4.30;;;2.03;;
68353;SDS011;55274;43.060;25.618;2022-07-29T07:54:10;7.75;;;1.77;;
68353;SDS011;55274;43.060;25.618;2022-07-29T07:56:36;2.47;;;1.73;;
68353;SDS011;55274;43.060;25.618;2022-07-29T07:59:01;3.55;;;2.15;;
68353;SDS011;55274;43.060;25.618;2022-07-29T08:01:27;5.00;;;1.98;;
68353;SDS011;55274;43.060;25.618;2022-07-29T08:03:53;4.82;;;2.10;;
68353;SDS011;55274;43.060;25.618;2022-07-29T08:06:19;4.65;;;2.00;;
68353;SDS011;55274;43.060;25.618;2022-07-29T08:08:44;3.22;;;1.70;;
68353;SDS011;55274;43.060;25.618;2022-07-29T08:11:10;6.55;;;1.90;;
68353;SDS011;55274;43.060;25.618;2022-07-29T08:13:37;4.57;;;2.10;;
68353;SDS011;55274;43.060;25.618;2022-07-29T08:16:03;3.05;;;1.70;;
68353;SDS011;55274;43.060;25.618;2022-07-29T08:18:40;1.67;;;1.48;;
68353;SDS011;55274;43.060;25.618;2022-07-29T08:21:06;12.60;;;2.65;;
68353;SDS011;55274;43.060;25.618;2022-07-29T08:23:32;4.43;;;2.28;;
68353;SDS011;55274;43.060;25.618;2022-07-29T08:26:09;34.13;;;3.30;;
68353;SDS011;55274;43.060;25.618;2022-07-29T08:28:38;6.57;;;1.83;;
68353;SDS011;55274;43.060;25.618;2022-07-29T08:31:05;7.10;;;2.15;;
68353;SDS011;55274;43.060;25.618;2022-07-29T08:33:32;23.83;;;2.92;;
68353;SDS011;55274;43.060;25.618;2022-07-29T08:35:58;6.75;;;2.10;;
68353;SDS011;55274;43.060;25.618;2022-07-29T08:38:24;20.02;;;3.80;;
68353;SDS011;55274;43.060;25.618;2022-07-29T08:40:51;3.58;;;2.00;;
68353;SDS011;55274;43.060;25.618;2022-07-29T08:43:18;3.50;;;1.73;;
68353;SDS011;55274;43.060;25.618;2022-07-29T08:45:45;27.92;;;3.53;;
68353;SDS011;55274;43.060;25.618;2022-07-29T08:48:13;2.50;;;1.90;;
68353;SDS011;55274;43.060;25.618;2022-07-29T08:50:41;4.00;;;1.98;;
68353;SDS011;55274;43.060;25.618;2022-07-29T08:53:08;14.98;;;2.65;;
68353;SDS011;55274;43.060;25.618;2022-07-29T08:55:40;9.60;;;2.20;;
68353;SDS011;55274;43.060;25.618;2022-07-29T08:58:08;2.97;;;1.58;;
68353;SDS011;55274;43.060;25.618;2022-07-29T09:00:36;7.03;;;2.13;;
68353;SDS011;55274;43.060;25.618;2022-07-29T09:03:06;5.55;;;2.13;;
68353;SDS011;55274;43.060;25.618;2022-07-29T09:05:34;5.22;;;2.22;;
68353;SDS011;55274;43.060;25.618;2022-07-29T09:08:00;3.33;;;2.00;;
68353;SDS011;55274;43.060;25.618;2022-07-29T09:10:27;3.22;;;2.22;;
68353;SDS011;55274;43.060;25.618;2022-07-29T09:12:57;10.52;;;2.20;;
68353;SDS011;55274;43.060;25.618;2022-07-29T09:15:23;3.22;;;1.90;;
68353;SDS011;55274;43.060;25.618;2022-07-29T09:17:49;6.35;;;2.08;;
68353;SDS011;55274;43.060;25.618;2022-07-29T09:20:19;3.40;;;1.88;;
68353;SDS011;55274;43.060;25.618;2022-07-29T09:22:50;3.45;;;1.70;;
68353;SDS011;55274;43.060;25.618;2022-07-29T09:25:37;6.15;;;1.80;;
68353;SDS011;55274;43.060;25.618;2022-07-29T09:28:09;3.85;;;2.40;;
68353;SDS011;55274;43.060;25.618;2022-07-29T09:30:52;22.40;;;3.70;;
68353;SDS011;55274;43.060;25.618;2022-07-29T09:33:19;5.25;;;1.73;;
68353;SDS011;55274;43.060;25.618;2022-07-29T09:35:46;2.60;;;1.80;;
68353;SDS011;55274;43.060;25.618;2022-07-29T09:38:23;3.40;;;1.80;;
68353;SDS011;55274;43.060;25.618;2022-07-29T09:40:58;4.97;;;2.20;;
68353;SDS011;55274;43.060;25.618;2022-07-29T09:43:26;4.40;;;2.15;;
68353;SDS011;55274;43.060;25.618;2022-07-29T09:45:52;2.83;;;1.98;;
68353;SDS011;55274;43.060;25.618;2022-07-29T09:50:49;5.80;;;1.88;;
68353;SDS011;55274;43.060;25.618;2022-07-29T09:55:57;13.85;;;2.17;;
68353;SDS011;55274;43.060;25.618;2022-07-29T09:58:23;14.20;;;2.40;;
68353;SDS011;55274;43.060;25.618;2022-07-29T10:00:49;3.85;;;2.03;;
68353;SDS011;55274;43.060;25.618;2022-07-29T10:03:17;3.22;;;1.85;;
68353;SDS011;55274;43.060;25.618;2022-07-29T10:05:44;3.80;;;2.05;;
68353;SDS011;55274;43.060;25.618;2022-07-29T10:08:11;3.08;;;1.77;;
68353;SDS011;55274;43.060;25.618;2022-07-29T10:10:39;61.67;;;5.97;;
68353;SDS011;55274;43.060;25.618;2022-07-29T10:13:07;6.95;;;2.17;;
68353;SDS011;55274;43.060;25.618;2022-07-29T10:15:37;3.97;;;2.00;;
68353;SDS011;55274;43.060;25.618;2022-07-29T10:18:06;6.32;;;2.10;;
68353;SDS011;55274;43.060;25.618;2022-07-29T10:20:33;3.00;;;1.98;;
68353;SDS011;55274;43.060;25.618;2022-07-29T10:22:59;2.20;;;1.60;;
68353;SDS011;55274;43.060;25.618;2022-07-29T10:25:25;4.45;;;2.20;;
68353;SDS011;55274;43.060;25.618;2022-07-29T10:27:53;2.72;;;2.00;;
68353;SDS011;55274;43.060;25.618;2022-07-29T10:30:21;3.08;;;2.00;;
68353;SDS011;55274;43.060;25.618;2022-07-29T10:36:15;3.95;;;2.10;;
68353;SDS011;55274;43.060;25.618;2022-07-29T10:42:18;33.03;;;4.43;;
68353;SDS011;55274;43.060;25.618;2022-07-29T10:44:26;11.75;;;2.78;;
68353;SDS011;55274;43.060;25.618;2022-07-29T10:46:53;3.33;;;1.80;;
68353;SDS011;55274;43.060;25.618;2022-07-29T10:49:20;4.68;;;2.15;;
68353;SDS011;55274;43.060;25.618;2022-07-29T10:51:55;31.88;;;4.93;;
68353;SDS011;55274;43.060;25.618;2022-07-29T10:54:42;4.85;;;1.80;;
68353;SDS011;55274;43.060;25.618;2022-07-29T10:59:41;6.00;;;2.15;;
68353;SDS011;55274;43.060;25.618;2022-07-29T11:02:53;11.02;;;2.40;;
68353;SDS011;55274;43.060;25.618;2022-07-29T11:07:23;13.00;;;3.03;;
68353;SDS011;55274;43.060;25.618;2022-07-29T11:15:04;5.90;;;2.33;;
68353;SDS011;55274;43.060;25.618;2022-07-29T11:23:19;3.72;;;2.17;;
68353;SDS011;55274;43.060;25.618;2022-07-29T11:28:32;24.02;;;4.05;;
68353;SDS011;55274;43.060;25.618;2022-07-29T11:31:01;2.90;;;1.95;;
68353;SDS011;55274;43.060;25.618;2022-07-29T11:33:29;3.22;;;2.33;;
68353;SDS011;55274;43.060;25.618;2022-07-29T11:36:12;4.78;;;2.08;;
68353;SDS011;55274;43.060;25.618;2022-07-29T11:38:39;27.50;;;3.30;;
68353;SDS011;55274;43.060;25.618;2022-07-29T11:41:24;25.20;;;2.80;;
68353;SDS011;55274;43.060;25.618;2022-07-29T11:43:55;36.50;;;4.13;;
68353;SDS011;55274;43.060;25.618;2022-07-29T11:49:09;7.70;;;2.25;;
68353;SDS011;55274;43.060;25.618;2022-07-29T11:51:38;8.35;;;2.55;;
68353;SDS011;55274;43.060;25.618;2022-07-29T11:54:05;9.57;;;2.30;;
68353;SDS011;55274;43.060;25.618;2022-07-29T11:56:36;17.25;;;2.92;;
68353;SDS011;55274;43.060;25.618;2022-07-29T12:01:34;3.17;;;2.10;;
68353;SDS011;55274;43.060;25.618;2022-07-29T12:04:04;3.92;;;2.13;;
68353;SDS011;55274;43.060;25.618;2022-07-29T12:06:31;3.17;;;2.10;;
68353;SDS011;55274;43.060;25.618;2022-07-29T12:09:00;14.20;;;2.88;;
68353;SDS011;55274;43.060;25.618;2022-07-29T12:11:32;5.30;;;2.40;;
68353;SDS011;55274;43.060;25.618;2022-07-29T12:13:58;4.68;;;2.10;;
68353;SDS011;55274;43.060;25.618;2022-07-29T12:16:33;5.05;;;2.22;;
68353;SDS011;55274;43.060;25.618;2022-07-29T12:19:03;28.45;;;4.03;;
68353;SDS011;55274;43.060;25.618;2022-07-29T12:21:50;17.95;;;3.22;;
68353;SDS011;55274;43.060;25.618;2022-07-29T12:24:16;6.80;;;2.47;;
68353;SDS011;55274;43.060;25.618;2022-07-29T12:26:50;15.80;;;3.22;;
68353;SDS011;55274;43.060;25.618;2022-07-29T12:29:17;30.05;;;4.18;;
68353;SDS011;55274;43.060;25.618;2022-07-29T12:31:44;14.40;;;3.05;;
68353;SDS011;55274;43.060;25.618;2022-07-29T12:34:12;7.65;;;2.55;;
68353;SDS011;55274;43.060;25.618;2022-07-29T12:36:42;22.10;;;3.38;;
68353;SDS011;55274;43.060;25.618;2022-07-29T12:39:09;75.88;;;8.05;;
68353;SDS011;55274;43.060;25.618;2022-07-29T12:41:35;4.88;;;2.40;;
68353;SDS011;55274;43.060;25.618;2022-07-29T12:44:02;7.95;;;2.28;;
68353;SDS011;55274;43.060;25.618;2022-07-29T12:46:28;33.28;;;3.60;;
68353;SDS011;55274;43.060;25.618;2022-07-29T12:48:54;64.82;;;5.93;;
68353;SDS011;55274;43.060;25.618;2022-07-29T13:01:59;13.18;;;2.95;;
68353;SDS011;55274;43.060;25.618;2022-07-29T13:06:59;10.15;;;2.80;;
68353;SDS011;55274;43.060;25.618;2022-07-29T13:09:40;53.22;;;4.53;;
68353;SDS011;55274;43.060;25.618;2022-07-29T13:12:11;31.63;;;4.10;;
68353;SDS011;55274;43.060;25.618;2022-07-29T13:14:39;12.63;;;3.10;;
68353;SDS011;55274;43.060;25.618;2022-07-29T13:17:10;8.48;;;3.20;;
68353;SDS011;55274;43.060;25.618;2022-07-29T13:22:10;26.88;;;3.40;;
68353;SDS011;55274;43.060;25.618;2022-07-29T13:24:52;7.68;;;2.67;;
68353;SDS011;55274;43.060;25.618;2022-07-29T13:27:24;6.68;;;2.40;;
68353;SDS011;55274;43.060;25.618;2022-07-29T13:29:52;30.25;;;4.35;;
68353;SDS011;55274;43.060;25.618;2022-07-29T13:32:21;11.93;;;2.78;;
68353;SDS011;55274;43.060;25.618;2022-07-29T13:34:48;12.57;;;3.25;;
68353;SDS011;55274;43.060;25.618;2022-07-29T13:37:14;13.05;;;2.92;;
68353;SDS011;55274;43.060;25.618;2022-07-29T13:39:41;5.93;;;2.45;;
68353;SDS011;55274;43.060;25.618;2022-07-29T13:42:08;6.70;;;2.40;;
68353;SDS011;55274;43.060;25.618;2022-07-29T13:44:34;63.28;;;7.68;;
68353;SDS011;55274;43.060;25.618;2022-07-29T13:47:00;6.05;;;2.47;;
68353;SDS011;55274;43.060;25.618;2022-07-29T13:49:26;9.10;;;2.78;;
68353;SDS011;55274;43.060;25.618;2022-07-29T13:51:52;6.05;;;2.60;;
68353;SDS011;55274;43.060;25.618;2022-07-29T13:54:18;3.58;;;2.45;;
68353;SDS011;55274;43.060;25.618;2022-07-29T13:56:44;9.75;;;2.70;;
68353;SDS011;55274;43.060;25.618;2022-07-29T13:59:10;4.63;;;2.17;;
68353;SDS011;55274;43.060;25.618;2022-07-29T14:01:37;67.75;;;7.03;;
68353;SDS011;55274;43.060;25.618;2022-07-29T14:04:06;3.80;;;2.40;;
68353;SDS011;55274;43.060;25.618;2022-07-29T14:06:32;4.88;;;2.10;;
68353;SDS011;55274;43.060;25.618;2022-07-29T14:08:58;7.93;;;2.53;;
68353;SDS011;55274;43.060;25.618;2022-07-29T14:11:24;2.88;;;2.63;;
68353;SDS011;55274;43.060;25.618;2022-07-29T14:13:49;13.13;;;3.10;;
68353;SDS011;55274;43.060;25.618;2022-07-29T14:16:15;6.78;;;2.50;;
68353;SDS011;55274;43.060;25.618;2022-07-29T14:18:41;15.55;;;2.65;;
68353;SDS011;55274;43.060;25.618;2022-07-29T14:21:07;20.95;;;3.58;;
68353;SDS011;55274;43.060;25.618;2022-07-29T14:23:33;18.05;;;3.03;;
68353;SDS011;55274;43.060;25.618;2022-07-29T14:25:59;10.85;;;2.63;;
68353;SDS011;55274;43.060;25.618;2022-07-29T14:28:25;4.15;;;2.60;;
68353;SDS011;55274;43.060;25.618;2022-07-29T14:30:51;13.23;;;3.20;;
68353;SDS011;55274;43.060;25.618;2022-07-29T14:33:16;5.22;;;2.40;;
68353;SDS011;55274;43.060;25.618;2022-07-29T14:35:42;9.98;;;2.58;;
68353;SDS011;55274;43.060;25.618;2022-07-29T14:38:09;59.90;;;5.63;;
68353;SDS011;55274;43.060;25.618;2022-07-29T14:40:35;4.55;;;2.50;;
68353;SDS011;55274;43.060;25.618;2022-07-29T14:43:01;7.97;;;2.75;;
68353;SDS011;55274;43.060;25.618;2022-07-29T14:45:27;11.88;;;2.75;;
68353;SDS011;55274;43.060;25.618;2022-07-29T14:47:53;5.60;;;2.60;;
68353;SDS011;55274;43.060;25.618;2022-07-29T14:50:19;22.25;;;3.40;;
68353;SDS011;55274;43.060;25.618;2022-07-29T14:52:45;12.20;;;3.08;;
68353;SDS011;55274;43.060;25.618;2022-07-29T14:55:11;21.73;;;3.22;;
68353;SDS011;55274;43.060;25.618;2022-07-29T14:57:37;12.35;;;2.80;;
68353;SDS011;55274;43.060;25.618;2022-07-29T15:00:03;9.27;;;2.75;;
68353;SDS011;55274;43.060;25.618;2022-07-29T15:02:31;29.48;;;4.40;;
68353;SDS011;55274;43.060;25.618;2022-07-29T15:04:57;19.42;;;3.22;;
68353;SDS011;55274;43.060;25.618;2022-07-29T15:07:23;6.47;;;2.58;;
68353;SDS011;55274;43.060;25.618;2022-07-29T15:09:49;13.93;;;2.85;;
68353;SDS011;55274;43.060;25.618;2022-07-29T15:12:14;10.13;;;2.95;;
68353;SDS011;55274;43.060;25.618;2022-07-29T15:14:40;5.25;;;2.50;;
68353;SDS011;55274;43.060;25.618;2022-07-29T15:17:06;36.00;;;5.07;;
68353;SDS011;55274;43.060;25.618;2022-07-29T15:19:32;22.35;;;3.72;;
68353;SDS011;55274;43.060;25.618;2022-07-29T15:21:58;32.67;;;4.40;;
68353;SDS011;55274;43.060;25.618;2022-07-29T15:24:24;20.10;;;3.95;;
68353;SDS011;55274;43.060;25.618;2022-07-29T15:26:50;6.72;;;2.92;;
68353;SDS011;55274;43.060;25.618;2022-07-29T15:29:16;22.88;;;3.85;;
68353;SDS011;55274;43.060;25.618;2022-07-29T15:31:42;84.78;;;7.78;;
68353;SDS011;55274;43.060;25.618;2022-07-29T15:34:08;16.98;;;3.53;;
68353;SDS011;55274;43.060;25.618;2022-07-29T15:36:34;30.65;;;4.65;;
68353;SDS011;55274;43.060;25.618;2022-07-29T15:39:00;25.25;;;3.92;;